Time;durP1;ratioP1;P1;durP2;ratioP2;P2;SDS_P1;SDS_P2;PMS_P1;PMS_P2;Temp;Humidity;BMP_temperature;BMP_pressure;BME280_temperature;BME280_humidity;BME280_pressure;Samples;Min_cycle;Max_cycle;Signal;HPM_P1;HPM_P2
2022/10/24 15:36:33;;;;;;;;;;;11.30;99.90;;;;;;5114998;27;20275;-93
2022/10/24 15:39:00;;;;;;;;;;;11.20;99.90;;;;;;5109723;28;19919;-92
2022/10/24 15:41:26;;;;;;;;;;;11.20;99.90;;;;;;5107863;28;19912;-93
2022/10/24 15:43:52;;;;;;;;;;;11.20;99.90;;;;;;5103931;28;19913;-92
2022/10/24 15:46:20;;;;;;;;;;;11.30;99.90;;;;;;5108318;28;20021;-94
2022/10/24 15:48:46;;;;;;;;;;;11.30;99.90;;;;;;5104227;28;19912;-94
2022/10/24 15:51:16;;;;;;;;;;;11.40;99.90;;;;;;5114250;28;19978;-96
2022/10/24 15:53:42;;;;;;;;;;;11.40;99.90;;;;;;5127284;28;19927;-91
2022/10/24 15:56:10;;;;;;;;;;;11.50;99.90;;;;;;5110698;28;19928;-91
2022/10/24 15:58:36;;;;;;;;;;;11.60;99.90;;;;;;5160679;27;19957;-95
2022/10/24 16:01:02;;;;;;;;;;;11.70;99.90;;;;;;5100325;28;19932;-96
2022/10/24 16:03:31;;;;;;;;;;;11.70;99.90;;;;;;5111575;28;19912;-95
2022/10/24 16:05:57;;;;;;;;;;;11.70;99.90;;;;;;5105245;28;19920;-95
2022/10/24 16:08:22;;;;;;;;;;;11.80;99.90;;;;;;5111796;28;19927;-94
2022/10/24 16:10:50;;;;;;;;;;;11.80;99.90;;;;;;5147778;27;19908;-93
2022/10/24 16:13:17;;;;;;;;;;;11.80;99.90;;;;;;5123975;27;19955;-95
2022/10/24 16:15:49;;;;;;;;;;;11.90;99.90;;;;;;5115679;28;20346;-96
2022/10/24 16:18:15;;;;;;;;;;;11.90;99.90;;;;;;5118887;28;19911;-96
2022/10/24 16:20:40;;;;;;;;;;;11.90;99.90;;;;;;5116585;28;20314;-93
2022/10/24 16:23:07;;;;;;;;;;;11.90;99.90;;;;;;5106922;28;19983;-94
2022/10/24 16:25:33;;;;;;;;;;;11.90;99.90;;;;;;5126122;27;20331;-96
2022/10/24 16:28:03;;;;;;;;;;;11.90;99.90;;;;;;5121938;28;19912;-95
2022/10/24 16:30:32;;;;;;;;;;;11.90;99.90;;;;;;5116524;28;19919;-96
2022/10/24 16:32:57;;;;;;;;;;;11.90;99.90;;;;;;5101574;28;19917;-96
2022/10/24 16:35:25;;;;;;;;;;;11.90;99.90;;;;;;5092849;28;19929;-94
2022/10/24 16:37:51;;;;;;;;;;;11.90;99.90;;;;;;5111677;28;20002;-95
2022/10/24 16:40:16;;;;;;;;;;;11.90;99.90;;;;;;5110205;28;19909;-96
2022/10/24 18:17:57;;;;;;;;;;;10.20;99.90;;;;;;5085786;28;19921;-95
2022/10/24 18:20:23;;;;;;;;;;;10.20;99.90;;;;;;5037042;28;19914;-94
2022/10/24 18:22:50;;;;;;;;;;;10.30;99.90;;;;;;5053936;28;20434;-94
2022/10/24 18:25:16;;;;;;;;;;;10.40;99.90;;;;;;5033232;28;19920;-93
2022/10/24 18:27:41;;;;;;;;;;;10.40;99.90;;;;;;5030038;28;19921;-94
2022/10/24 18:30:10;;;;;;;;;;;10.60;99.90;;;;;;5032704;28;19909;-93
2022/10/24 18:32:36;;;;;;;;;;;10.70;99.90;;;;;;5048067;28;19980;-94
2022/10/24 18:35:02;;;;;;;;;;;10.80;99.90;;;;;;5032405;28;19917;-94
2022/10/24 18:37:27;;;;;;;;;;;10.90;99.90;;;;;;5033240;28;19975;-95
2022/10/24 18:39:53;;;;;;;;;;;11.10;99.90;;;;;;5031220;28;19910;-93
2022/10/24 18:42:25;;;;;;;;;;;11.10;99.90;;;;;;5031026;28;19910;-94
2022/10/24 18:44:50;;;;;;;;;;;11.20;99.90;;;;;;5047531;28;19932;-95
2022/10/24 18:47:17;;;;;;;;;;;11.30;99.90;;;;;;5030664;28;20366;-95
